Terminal Aerodrome Forecast
Issued by NWS

Home | Current Version | Previous Version | Text Only | Print | Product List | Glossary On
Versions: 1 2 3 4 5 6 7 8 9 10 11 12 13 14 15 16 17 18 19 20 21 22 23 24 25 26 27 28
364
FTUS41 KBUF 172320
TAFJHW
TAF
KJHW 172320Z 1800/1824 27008KT 3SM BR OVC015
     FM180030 26008KT 2SM BR VCSH OVC008
     FM180300 26010KT 1SM BR VCSH OVC003
     FM181400 27012KT 5SM BR OVC003
     FM181800 28010KT P6SM OVC008
      AMD LTD TO CLD VIS AND WIND=

USA.gov is the U.S. government's official web portal to all federal, state and local government web resources and services.